Time;durP1;ratioP1;P1;durP2;ratioP2;P2;SDS_P1;SDS_P2;PMS_P1;PMS_P2;Temp;Humidity;BMP_temperature;BMP_pressure;BME280_temperature;BME280_humidity;BME280_pressure;Samples;Min_cycle;Max_cycle;Signal;HPM_P1;HPM_P2
2022/07/11 00:01:45;;;;;;;5.22;1.65;;;16.30;99.90;;;;;;5033324;28;20378;-68
2022/07/11 00:04:10;;;;;;;4.43;1.70;;;16.20;99.90;;;;;;5019194;28;20052;-68
2022/07/11 00:06:36;;;;;;;7.47;1.58;;;16.20;99.90;;;;;;5034406;28;20045;-68
2022/07/11 00:09:02;;;;;;;4.93;2.03;;;16.20;99.90;;;;;;5017264;28;20064;-67
2022/07/11 00:11:27;;;;;;;3.17;1.45;;;16.20;99.90;;;;;;5035510;28;20033;-68
2022/07/11 00:13:53;;;;;;;3.13;1.15;;;16.10;99.90;;;;;;5018565;28;20068;-67
2022/07/11 00:16:18;;;;;;;3.88;1.20;;;16.10;99.90;;;;;;5033301;28;20064;-67
2022/07/11 00:18:44;;;;;;;2.38;1.27;;;16.10;99.90;;;;;;5033036;28;20035;-67
2022/07/11 00:21:11;;;;;;;3.78;1.27;;;16.10;99.90;;;;;;5018198;28;20033;-67
2022/07/11 00:23:37;;;;;;;5.50;1.48;;;16.10;99.90;;;;;;5034969;28;20051;-68
2022/07/11 00:26:03;;;;;;;2.53;1.10;;;16.00;99.90;;;;;;5034289;28;20404;-68
2022/07/11 00:28:29;;;;;;;2.13;1.23;;;16.00;99.90;;;;;;5034932;28;20064;-68
2022/07/11 00:30:54;;;;;;;4.15;1.48;;;16.00;99.90;;;;;;5033964;28;20454;-68
2022/07/11 00:33:20;;;;;;;4.45;1.42;;;16.00;99.90;;;;;;5035163;28;20048;-68
2022/07/11 00:35:46;;;;;;;2.30;1.30;;;16.00;99.90;;;;;;5017184;28;20111;-68
2022/07/11 00:38:12;;;;;;;4.75;1.10;;;16.00;99.90;;;;;;5038141;28;20029;-67
2022/07/11 00:40:38;;;;;;;5.00;1.23;;;16.10;99.90;;;;;;5029118;28;20393;-68
2022/07/11 00:43:04;;;;;;;3.70;1.33;;;16.00;99.90;;;;;;5022350;28;20095;-69
2022/07/11 00:45:30;;;;;;;2.90;1.08;;;16.00;99.90;;;;;;5021897;28;20083;-68
2022/07/11 00:47:58;;;;;;;3.17;1.40;;;16.00;99.90;;;;;;5038897;28;20041;-68
2022/07/11 00:50:25;;;;;;;3.88;1.40;;;16.00;99.90;;;;;;5037880;28;20032;-68
2022/07/11 00:52:56;;;;;;;4.10;1.20;;;16.00;99.90;;;;;;5009484;28;20045;-68
2022/07/11 00:55:22;;;;;;;2.95;1.30;;;16.00;99.90;;;;;;5018887;28;20379;-68
2022/07/11 00:57:51;;;;;;;4.38;1.30;;;16.00;99.90;;;;;;5035179;28;20034;-67
2022/07/11 01:00:17;;;;;;;2.95;1.42;;;16.00;99.90;;;;;;5023569;28;20056;-68
2022/07/11 01:02:43;;;;;;;4.28;1.33;;;16.00;99.90;;;;;;5038527;28;20486;-68
2022/07/11 01:05:08;;;;;;;4.82;1.50;;;16.00;99.90;;;;;;5038867;28;20037;-69
2022/07/11 01:07:34;;;;;;;3.45;1.30;;;16.00;99.90;;;;;;5037506;28;20486;-68
2022/07/11 01:09:59;;;;;;;5.43;1.58;;;16.00;99.90;;;;;;5021028;28;20048;-67
2022/07/11 01:12:25;;;;;;;4.90;1.67;;;16.00;99.90;;;;;;5038348;28;20440;-68
2022/07/11 01:14:56;;;;;;;4.43;1.60;;;15.90;99.90;;;;;;5022013;28;20098;-68
2022/07/11 01:17:22;;;;;;;7.20;1.63;;;15.90;99.90;;;;;;5021322;28;20040;-68
2022/07/11 01:19:47;;;;;;;5.25;1.70;;;15.90;99.90;;;;;;5021665;28;20459;-67
2022/07/11 01:22:20;;;;;;;2.65;1.33;;;16.00;99.90;;;;;;5020997;28;20421;-68
2022/07/11 01:24:46;;;;;;;4.55;1.48;;;16.00;99.90;;;;;;5038337;28;20041;-67
2022/07/11 01:27:13;;;;;;;3.78;1.70;;;16.00;99.90;;;;;;5054463;28;20121;-68
2022/07/11 01:29:39;;;;;;;3.70;1.55;;;16.00;99.90;;;;;;5038072;28;20041;-68
2022/07/11 01:32:07;;;;;;;5.72;1.60;;;16.00;99.90;;;;;;5037094;28;20072;-69
2022/07/11 01:34:32;;;;;;;8.02;1.83;;;16.00;99.90;;;;;;5021488;28;20124;-69
2022/07/11 01:36:58;;;;;;;4.00;1.55;;;15.90;99.90;;;;;;5020393;28;20519;-69
2022/07/11 01:39:23;;;;;;;4.47;1.75;;;15.90;99.90;;;;;;5037756;28;20047;-68
2022/07/11 01:41:49;;;;;;;3.65;1.70;;;15.90;99.90;;;;;;5036884;28;20037;-69
2022/07/11 01:44:15;;;;;;;3.83;1.73;;;16.00;99.90;;;;;;5021365;28;20041;-69
2022/07/11 01:46:40;;;;;;;5.05;1.80;;;15.90;99.90;;;;;;5036429;28;20408;-69
2022/07/11 01:49:06;;;;;;;3.40;1.65;;;15.90;99.90;;;;;;5037904;28;20544;-68
2022/07/11 01:51:31;;;;;;;5.65;1.60;;;15.90;99.90;;;;;;5020268;28;20068;-68
2022/07/11 01:53:57;;;;;;;3.00;1.80;;;15.90;99.90;;;;;;5021327;28;20045;-68
2022/07/11 01:56:23;;;;;;;4.78;1.98;;;15.90;99.90;;;;;;5019663;28;20039;-68
2022/07/11 01:58:48;;;;;;;3.95;1.55;;;15.90;99.90;;;;;;5036544;28;20485;-68
2022/07/11 02:01:14;;;;;;;3.92;1.65;;;15.90;99.90;;;;;;5033088;28;20038;-68
2022/07/11 02:03:40;;;;;;;4.60;1.73;;;15.90;99.90;;;;;;5017600;28;20042;-68
2022/07/11 02:06:06;;;;;;;3.88;1.90;;;15.90;99.90;;;;;;5007409;28;20076;-68
2022/07/11 02:08:32;;;;;;;4.07;1.60;;;15.90;99.90;;;;;;5036524;28;20489;-69
2022/07/11 02:10:58;;;;;;;3.70;1.70;;;16.00;99.90;;;;;;5019112;28;20033;-68
2022/07/11 02:13:23;;;;;;;3.40;1.90;;;15.90;99.90;;;;;;5037293;28;20041;-69
2022/07/11 02:15:50;;;;;;;3.95;1.80;;;15.80;99.90;;;;;;5037411;28;20048;-69
2022/07/11 02:18:18;;;;;;;2.83;1.88;;;15.80;99.90;;;;;;5020785;28;20037;-68
2022/07/11 02:20:48;;;;;;;3.42;1.80;;;15.80;99.90;;;;;;5036343;28;20041;-69
2022/07/11 02:23:15;;;;;;;5.03;2.33;;;15.80;99.90;;;;;;5036974;28;20037;-69
2022/07/11 02:25:41;;;;;;;2.95;1.55;;;15.80;99.90;;;;;;5018934;28;20051;-69
2022/07/11 02:28:08;;;;;;;6.88;2.00;;;15.80;99.90;;;;;;5036706;28;20036;-69
2022/07/11 02:30:39;;;;;;;4.78;2.28;;;15.80;99.90;;;;;;5034544;28;20041;-69
2022/07/11 02:33:07;;;;;;;4.30;2.20;;;15.80;99.90;;;;;;5020472;28;20044;-68
2022/07/11 02:35:33;;;;;;;5.10;2.42;;;15.80;99.90;;;;;;5035828;28;20044;-68
2022/07/11 02:37:59;;;;;;;5.10;2.65;;;15.80;99.90;;;;;;5036679;28;20044;-68
2022/07/11 02:40:26;;;;;;;6.03;2.38;;;15.80;99.90;;;;;;5035694;28;20029;-68
2022/07/11 02:42:53;;;;;;;6.32;2.60;;;15.80;99.90;;;;;;5036700;28;20451;-68
2022/07/11 02:45:19;;;;;;;4.25;2.60;;;15.90;99.90;;;;;;5015965;28;20032;-68
2022/07/11 02:47:45;;;;;;;6.22;2.53;;;15.80;99.90;;;;;;5033789;28;20508;-68
2022/07/11 02:50:12;;;;;;;5.20;2.50;;;15.90;99.90;;;;;;5034710;28;20029;-68
2022/07/11 02:52:42;;;;;;;5.82;2.45;;;15.90;99.90;;;;;;5036339;28;20088;-68
2022/07/11 02:55:09;;;;;;;6.95;2.75;;;15.90;99.90;;;;;;5035573;28;20037;-68
2022/07/11 02:57:36;;;;;;;5.32;2.65;;;15.90;99.90;;;;;;5028990;28;20069;-68
2022/07/11 03:00:04;;;;;;;5.95;2.67;;;15.80;99.90;;;;;;5021103;28;20048;-68
2022/07/11 03:02:31;;;;;;;5.18;2.60;;;15.80;99.90;;;;;;5019108;28;20044;-68
2022/07/11 03:04:57;;;;;;;4.50;2.53;;;15.80;99.90;;;;;;5035445;28;20049;-68
2022/07/11 03:07:27;;;;;;;6.00;2.67;;;15.90;99.90;;;;;;5034114;28;20477;-69
2022/07/11 03:09:54;;;;;;;5.82;2.60;;;15.80;99.90;;;;;;5018914;28;20162;-68
2022/07/11 03:12:20;;;;;;;4.43;2.28;;;15.90;99.90;;;;;;5018833;28;20075;-68
2022/07/11 03:14:45;;;;;;;4.93;2.28;;;15.80;99.90;;;;;;5034060;28;20087;-68
2022/07/11 03:17:11;;;;;;;4.13;1.98;;;15.90;99.90;;;;;;5035987;28;20059;-68
2022/07/11 03:19:36;;;;;;;5.38;2.47;;;15.90;99.90;;;;;;5034169;28;20166;-68
2022/07/11 03:22:04;;;;;;;4.57;2.20;;;15.90;99.90;;;;;;5033474;28;20051;-68
2022/07/11 03:24:29;;;;;;;5.10;2.30;;;15.90;99.90;;;;;;5019078;28;20142;-68
2022/07/11 03:26:55;;;;;;;5.28;2.60;;;15.90;99.90;;;;;;5034451;28;20525;-69
2022/07/11 03:29:20;;;;;;;5.38;2.55;;;15.90;99.90;;;;;;5035742;28;20045;-68
2022/07/11 03:31:46;;;;;;;4.18;2.42;;;15.90;99.90;;;;;;5032861;28;20053;-68
2022/07/11 03:34:12;;;;;;;4.70;2.60;;;15.90;99.90;;;;;;5035597;28;20060;-68
2022/07/11 03:36:38;;;;;;;6.15;2.85;;;15.90;99.90;;;;;;5033570;28;20045;-68
2022/07/11 03:39:03;;;;;;;5.50;2.45;;;15.90;99.90;;;;;;5032370;28;20029;-68
2022/07/11 03:41:29;;;;;;;5.38;2.72;;;15.90;99.90;;;;;;5015855;28;20033;-68
2022/07/11 03:43:56;;;;;;;5.95;2.70;;;15.90;99.90;;;;;;5016032;28;20040;-68
2022/07/11 03:46:22;;;;;;;5.35;2.55;;;15.90;99.90;;;;;;5034926;28;20500;-68
2022/07/11 03:48:48;;;;;;;5.00;2.60;;;15.90;99.90;;;;;;5018361;28;20128;-68
2022/07/11 03:51:13;;;;;;;6.07;2.90;;;15.90;99.90;;;;;;5017712;28;20124;-68
2022/07/11 03:53:39;;;;;;;5.80;3.10;;;15.90;99.90;;;;;;5033755;28;20410;-67
2022/07/11 03:56:05;;;;;;;5.72;3.00;;;15.90;99.90;;;;;;5033442;28;20068;-68
2022/07/11 03:58:31;;;;;;;6.72;3.33;;;15.90;99.90;;;;;;5015462;28;20485;-67
2022/07/11 04:00:56;;;;;;;6.20;3.13;;;15.90;99.90;;;;;;5034008;28;20401;-68
2022/07/11 04:03:24;;;;;;;6.60;3.05;;;15.90;99.90;;;;;;5034292;28;20075;-68
2022/07/11 04:05:50;;;;;;;5.72;2.78;;;15.90;99.90;;;;;;5034303;28;20033;-68
2022/07/11 04:08:15;;;;;;;5.72;2.70;;;16.00;99.90;;;;;;5018024;28;20504;-68
2022/07/11 04:10:41;;;;;;;5.97;2.40;;;15.90;99.90;;;;;;5019697;28;20052;-68
2022/07/11 04:13:06;;;;;;;6.68;2.55;;;15.90;99.90;;;;;;5017894;28;20543;-68
2022/07/11 04:15:32;;;;;;;4.38;2.20;;;15.90;99.90;;;;;;5034387;28;20040;-68
2022/07/11 04:17:57;;;;;;;9.23;2.35;;;15.90;99.90;;;;;;5034250;28;20036;-68
2022/07/11 04:20:23;;;;;;;4.80;2.40;;;15.90;99.90;;;;;;5033711;28;20114;-68
2022/07/11 04:22:49;;;;;;;5.78;2.25;;;15.90;99.90;;;;;;5033930;28;20048;-68
2022/07/11 04:25:14;;;;;;;4.25;2.13;;;16.00;99.90;;;;;;5030886;28;20486;-68
2022/07/11 04:27:40;;;;;;;5.18;2.50;;;16.00;99.90;;;;;;5033710;28;20032;-68
2022/07/11 04:30:06;;;;;;;6.18;2.30;;;16.00;99.90;;;;;;5034798;28;20493;-68
2022/07/11 04:32:32;;;;;;;5.80;2.58;;;15.90;99.90;;;;;;5017657;28;20045;-68
2022/07/11 04:34:57;;;;;;;4.82;2.47;;;15.90;99.90;;;;;;5017542;28;20120;-68
2022/07/11 04:37:23;;;;;;;7.70;2.70;;;15.90;99.90;;;;;;5024023;28;20037;-68
2022/07/11 04:39:48;;;;;;;5.53;2.40;;;15.90;99.90;;;;;;5016729;28;20033;-68
2022/07/11 04:42:14;;;;;;;5.00;2.35;;;15.90;99.90;;;;;;5035074;28;20033;-68
2022/07/11 04:44:41;;;;;;;4.05;1.92;;;15.90;99.90;;;;;;5033314;28;20033;-68
2022/07/11 04:47:06;;;;;;;4.50;1.98;;;15.90;99.90;;;;;;5016640;28;20060;-68
2022/07/11 04:49:32;;;;;;;4.40;1.98;;;15.90;99.90;;;;;;5033343;28;20520;-68
2022/07/11 04:51:59;;;;;;;3.65;1.50;;;16.00;99.90;;;;;;5033766;28;20053;-68
2022/07/11 04:54:24;;;;;;;3.58;1.55;;;16.00;99.90;;;;;;5033296;28;20270;-68
2022/07/11 04:56:50;;;;;;;2.72;1.40;;;16.00;99.90;;;;;;5032873;28;20060;-68
2022/07/11 04:59:15;;;;;;;2.40;1.40;;;16.00;99.90;;;;;;5034934;28;20033;-68
2022/07/11 05:01:41;;;;;;;2.53;1.30;;;16.00;99.90;;;;;;5015477;28;20504;-68
2022/07/11 05:04:07;;;;;;;2.85;1.60;;;16.00;99.90;;;;;;5033604;28;20444;-68
2022/07/11 05:06:33;;;;;;;2.75;1.40;;;16.10;99.90;;;;;;5032627;28;20032;-68
2022/07/11 05:08:59;;;;;;;2.90;1.45;;;16.10;99.90;;;;;;5034695;28;20033;-68
2022/07/11 05:11:25;;;;;;;2.60;1.27;;;16.10;99.90;;;;;;5033244;28;20037;-69
2022/07/11 05:13:50;;;;;;;3.10;1.10;;;16.10;99.90;;;;;;5032050;28;20041;-69
2022/07/11 05:16:16;;;;;;;2.15;1.10;;;16.10;99.90;;;;;;5031642;28;20516;-68
2022/07/11 05:18:42;;;;;;;1.73;1.02;;;16.10;99.90;;;;;;5034047;28;20033;-68
2022/07/11 05:21:07;;;;;;;3.25;1.38;;;16.20;99.90;;;;;;5031855;28;20048;-68
2022/07/11 05:23:33;;;;;;;4.32;1.05;;;16.20;99.90;;;;;;5036402;28;20037;-68
2022/07/11 05:25:58;;;;;;;4.57;1.13;;;16.20;99.90;;;;;;5036659;28;20032;-68
2022/07/11 05:28:24;;;;;;;1.83;0.95;;;16.10;99.90;;;;;;5038378;28;20048;-68
2022/07/11 05:30:50;;;;;;;3.00;1.10;;;16.10;99.90;;;;;;5036271;28;20084;-68
2022/07/11 05:33:16;;;;;;;2.55;0.85;;;16.20;99.90;;;;;;5036101;28;20045;-68
2022/07/11 05:35:42;;;;;;;2.05;0.90;;;16.20;99.90;;;;;;5014960;28;20123;-68
2022/07/11 05:38:07;;;;;;;2.03;0.70;;;16.30;99.90;;;;;;5036503;28;20044;-68
2022/07/11 05:40:33;;;;;;;3.28;0.95;;;16.30;99.90;;;;;;5036847;28;20518;-68
2022/07/11 05:43:00;;;;;;;3.53;0.95;;;16.40;99.90;;;;;;5021254;28;20037;-68
2022/07/11 05:45:26;;;;;;;2.78;0.80;;;16.40;99.90;;;;;;5035437;28;20374;-68
2022/07/11 05:47:51;;;;;;;2.58;0.70;;;16.40;99.90;;;;;;5037368;28;20095;-69
2022/07/11 05:50:17;;;;;;;3.60;0.80;;;16.40;99.90;;;;;;5035857;28;20124;-68
2022/07/11 05:52:43;;;;;;;3.15;0.85;;;16.40;99.90;;;;;;5037057;28;20512;-68
2022/07/11 05:55:08;;;;;;;2.03;0.65;;;16.40;99.90;;;;;;5001282;28;20069;-68
2022/07/11 05:57:34;;;;;;;2.38;0.82;;;16.40;99.90;;;;;;5029085;28;20514;-68
2022/07/11 05:59:59;;;;;;;3.38;0.88;;;16.40;99.90;;;;;;5029167;28;20056;-68
2022/07/11 06:02:25;;;;;;;2.08;0.80;;;16.40;99.90;;;;;;5036421;28;20048;-68
2022/07/11 06:04:50;;;;;;;1.73;0.90;;;16.40;99.90;;;;;;5037386;28;20036;-68
2022/07/11 06:08:40;;;;;;;2.60;0.80;;;16.30;99.90;;;;;;5018692;28;20071;-68
2022/07/11 06:10:02;;;;;;;3.22;0.90;;;16.40;99.90;;;;;;5034481;28;20048;-68
2022/07/11 06:12:27;;;;;;;4.38;1.00;;;16.30;99.90;;;;;;5034317;28;20037;-68
2022/07/11 06:14:53;;;;;;;1.98;0.70;;;16.40;99.90;;;;;;5017111;28;20037;-68
2022/07/11 06:17:18;;;;;;;3.20;0.95;;;16.40;99.90;;;;;;5031963;28;20040;-68
2022/07/11 06:19:44;;;;;;;1.85;0.65;;;16.50;99.90;;;;;;5036034;28;20040;-68
2022/07/11 06:22:09;;;;;;;2.10;0.98;;;16.40;99.90;;;;;;5035497;28;20047;-68
2022/07/11 06:24:35;;;;;;;2.63;0.90;;;16.50;99.90;;;;;;5019056;28;20029;-68
2022/07/11 06:27:01;;;;;;;1.80;0.77;;;16.50;99.90;;;;;;5034037;28;20186;-68
2022/07/11 06:29:27;;;;;;;3.50;0.80;;;16.50;99.90;;;;;;5019080;28;20045;-68
2022/07/11 06:31:52;;;;;;;1.80;0.70;;;16.50;99.90;;;;;;5036470;28;20409;-68
2022/07/11 06:34:19;;;;;;;2.25;0.70;;;16.50;99.90;;;;;;5035358;28;20124;-68
2022/07/11 06:36:44;;;;;;;2.42;0.85;;;16.50;99.90;;;;;;5036629;28;20037;-68
2022/07/11 06:39:10;;;;;;;2.50;0.73;;;16.50;99.90;;;;;;5036444;28;20063;-68
2022/07/11 06:41:36;;;;;;;2.45;0.80;;;16.60;99.90;;;;;;5035952;28;20044;-68
2022/07/11 06:44:01;;;;;;;3.28;0.80;;;16.60;99.90;;;;;;5035005;28;20509;-68
2022/07/11 06:46:27;;;;;;;1.38;0.60;;;16.60;99.90;;;;;;5036236;28;20036;-68
2022/07/11 06:48:53;;;;;;;2.22;0.70;;;16.70;99.90;;;;;;5035238;28;20048;-68
2022/07/11 06:51:18;;;;;;;2.53;0.80;;;16.70;99.90;;;;;;5023772;28;20029;-68
2022/07/11 06:53:44;;;;;;;2.00;0.75;;;16.70;99.90;;;;;;5033493;28;20062;-68
2022/07/11 06:56:10;;;;;;;2.40;0.70;;;16.70;99.90;;;;;;5035215;28;20037;-68
2022/07/11 06:58:35;;;;;;;3.30;0.80;;;16.70;99.90;;;;;;5035016;28;20132;-68
2022/07/11 07:01:03;;;;;;;1.48;0.68;;;16.80;99.90;;;;;;5014755;28;20052;-68
2022/07/11 07:03:30;;;;;;;3.70;0.80;;;16.90;99.90;;;;;;5014713;28;20037;-68
2022/07/11 07:05:56;;;;;;;2.88;0.70;;;16.90;99.90;;;;;;5034691;28;20040;-68
2022/07/11 07:08:26;;;;;;;1.67;0.70;;;17.00;99.90;;;;;;5035008;28;20086;-68
2022/07/11 07:10:53;;;;;;;1.52;0.82;;;17.00;99.90;;;;;;5031392;28;20162;-68
2022/07/11 07:13:20;;;;;;;2.63;0.60;;;17.00;99.90;;;;;;5017164;28;20037;-68
2022/07/11 07:15:46;;;;;;;1.13;0.70;;;17.10;99.90;;;;;;5034633;28;20393;-68
2022/07/11 07:18:12;;;;;;;0.80;0.60;;;17.10;99.90;;;;;;5018663;28;20048;-72
2022/07/11 07:20:38;;;;;;;3.72;0.85;;;17.10;99.90;;;;;;5034747;28;20040;-73
2022/07/11 07:23:03;;;;;;;2.67;0.73;;;17.10;99.90;;;;;;5015542;28;20048;-71
2022/07/11 07:25:29;;;;;;;2.72;0.80;;;17.20;99.90;;;;;;5031797;28;20036;-72
2022/07/11 07:27:55;;;;;;;1.00;0.60;;;17.30;99.90;;;;;;5035188;28;20528;-68
2022/07/11 07:30:20;;;;;;;2.03;0.50;;;17.40;99.90;;;;;;5034717;28;20057;-68
2022/07/11 07:32:46;;;;;;;2.05;0.50;;;17.60;99.90;;;;;;5034621;28;20446;-68
2022/07/11 07:35:12;;;;;;;4.25;0.70;;;17.80;99.90;;;;;;5034104;28;20045;-68
2022/07/11 07:37:37;;;;;;;1.13;0.70;;;18.00;99.90;;;;;;5033546;28;20119;-68
2022/07/11 07:40:03;;;;;;;3.17;0.60;;;18.10;99.90;;;;;;5034469;28;20033;-68
2022/07/11 07:42:29;;;;;;;2.25;0.57;;;18.20;99.90;;;;;;5035242;28;20132;-68
2022/07/11 07:44:54;;;;;;;2.05;0.43;;;18.30;99.90;;;;;;5035164;28;20119;-68
2022/07/11 07:47:20;;;;;;;1.35;0.40;;;18.40;99.90;;;;;;5029150;28;20471;-68
2022/07/11 07:49:46;;;;;;;1.83;0.40;;;18.60;99.90;;;;;;5029105;28;20110;-68
2022/07/11 07:52:11;;;;;;;0.75;0.30;;;18.50;99.90;;;;;;5035605;28;20048;-68
2022/07/11 07:54:37;;;;;;;0.90;0.40;;;18.50;99.90;;;;;;5034652;28;20088;-68
2022/07/11 07:57:03;;;;;;;1.33;0.40;;;18.40;99.90;;;;;;5017209;28;20144;-68
2022/07/11 07:59:29;;;;;;;0.63;0.55;;;18.30;99.90;;;;;;5033612;28;20044;-68
2022/07/11 08:01:54;;;;;;;0.93;0.57;;;18.20;99.90;;;;;;5029303;28;20033;-68
2022/07/11 08:04:20;;;;;;;2.03;0.55;;;18.20;99.90;;;;;;5013732;28;20041;-68
2022/07/11 08:06:46;;;;;;;1.13;0.80;;;18.10;99.90;;;;;;5033831;28;20033;-68
2022/07/11 08:09:12;;;;;;;0.85;0.60;;;18.00;99.90;;;;;;5034372;28;20499;-68
2022/07/11 08:11:38;;;;;;;1.13;0.60;;;17.90;99.90;;;;;;5047082;28;20054;-68
2022/07/11 08:14:04;;;;;;;2.28;0.63;;;17.90;99.90;;;;;;5033990;28;20053;-68
2022/07/11 08:16:31;;;;;;;3.55;1.02;;;18.00;99.90;;;;;;5033334;28;20044;-68
2022/07/11 08:19:03;;;;;;;1.40;0.75;;;18.10;99.90;;;;;;5032369;28;20374;-73
2022/07/11 08:21:29;;;;;;;3.13;0.70;;;18.10;99.90;;;;;;5018897;28;20055;-70
2022/07/11 08:23:56;;;;;;;2.83;0.80;;;18.10;99.90;;;;;;5029326;28;20409;-68
2022/07/11 08:26:22;;;;;;;0.80;0.52;;;18.20;99.90;;;;;;5034000;28;20546;-68
2022/07/11 08:28:47;;;;;;;1.25;0.60;;;18.20;99.90;;;;;;5034029;28;20041;-68
2022/07/11 08:31:13;;;;;;;1.48;0.80;;;18.20;99.90;;;;;;5034923;28;20053;-68
2022/07/11 08:33:39;;;;;;;1.13;0.80;;;18.20;99.90;;;;;;5018588;28;20045;-68
2022/07/11 08:36:06;;;;;;;1.48;0.80;;;18.20;99.90;;;;;;5018197;28;20044;-68
2022/07/11 08:38:31;;;;;;;2.63;1.20;;;18.20;99.90;;;;;;5018384;28;20048;-68
2022/07/11 08:40:57;;;;;;;2.53;0.70;;;18.20;99.90;;;;;;5018035;28;20044;-68
2022/07/11 08:43:29;;;;;;;3.40;0.80;;;18.20;99.90;;;;;;5018558;28;20037;-68
2022/07/11 08:45:55;;;;;;;1.75;0.65;;;18.30;99.90;;;;;;5033538;28;20116;-68
2022/07/11 08:48:22;;;;;;;1.25;0.60;;;18.30;99.90;;;;;;5005439;28;20088;-68
2022/07/11 08:50:50;;;;;;;4.93;0.80;;;18.30;99.90;;;;;;4990898;28;20566;-68
2022/07/11 08:53:15;;;;;;;1.77;0.80;;;18.20;99.90;;;;;;4998424;28;20037;-68
2022/07/11 08:55:41;;;;;;;1.65;0.85;;;18.20;99.90;;;;;;5014675;28;20099;-68
2022/07/11 08:58:08;;;;;;;4.82;1.05;;;18.10;99.90;;;;;;5011753;28;20049;-72
2022/07/11 09:00:35;;;;;;;3.00;0.90;;;18.10;99.90;;;;;;5015350;28;20038;-68
2022/07/11 09:03:02;;;;;;;3.30;1.15;;;18.10;99.90;;;;;;5018095;28;20091;-68
2022/07/11 09:05:28;;;;;;;3.28;0.90;;;18.10;99.90;;;;;;5016698;28;20056;-68
2022/07/11 09:07:53;;;;;;;1.52;0.68;;;18.00;99.90;;;;;;5002037;28;20397;-68
2022/07/11 09:10:19;;;;;;;0.60;0.43;;;18.00;99.90;;;;;;4999072;28;20047;-68
2022/07/11 09:12:59;;;;;;;1.52;0.50;;;17.90;99.90;;;;;;5000500;28;20493;-68
2022/07/11 09:15:35;;;;;;;1.13;0.40;;;17.90;99.90;;;;;;5017386;28;20048;-68
2022/07/11 09:18:01;;;;;;;0.70;0.50;;;17.90;99.90;;;;;;5015446;28;20401;-68
2022/07/11 09:25:19;;;;;;;1.30;0.40;;;18.00;99.90;;;;;;5009679;28;20041;-68
2022/07/11 09:26:06;;;;;;;1.13;0.38;;;18.00;99.90;;;;;;5028415;28;20053;-68
2022/07/11 09:28:32;;;;;;;0.47;0.32;;;18.10;99.90;;;;;;5001344;28;20048;-68
2022/07/11 09:30:57;;;;;;;0.40;0.30;;;18.20;99.90;;;;;;5023424;28;20045;-68
2022/07/11 09:33:23;;;;;;;0.40;0.30;;;18.30;99.90;;;;;;5037668;28;20079;-68
2022/07/11 09:35:49;;;;;;;0.52;0.35;;;18.30;99.90;;;;;;5021759;28;20072;-68
2022/07/11 09:38:16;;;;;;;2.67;0.70;;;18.30;99.90;;;;;;5020866;28;20492;-68
2022/07/11 09:40:44;;;;;;;1.20;0.40;;;18.30;99.90;;;;;;5016755;28;20040;-68
2022/07/11 09:43:09;;;;;;;2.05;0.45;;;18.30;99.90;;;;;;5035215;28;20493;-68
2022/07/11 09:45:35;;;;;;;0.80;0.40;;;18.20;99.90;;;;;;5020192;28;20035;-68
2022/07/11 09:48:15;;;;;;;1.08;0.50;;;18.20;99.90;;;;;;5019487;28;20037;-68
2022/07/11 09:50:56;;;;;;;1.55;0.40;;;18.10;99.90;;;;;;5006761;28;20056;-68
2022/07/11 09:53:21;;;;;;;0.63;0.50;;;18.10;99.90;;;;;;5033838;28;20032;-68
2022/07/11 09:55:47;;;;;;;0.85;0.50;;;18.10;99.90;;;;;;5036020;28;20489;-73
2022/07/11 09:58:15;;;;;;;2.33;0.50;;;18.10;99.90;;;;;;5018746;28;20421;-68
2022/07/11 10:00:42;;;;;;;1.25;0.50;;;18.10;99.90;;;;;;5036010;28;20128;-68
2022/07/11 10:03:10;;;;;;;0.65;0.40;;;18.10;99.90;;;;;;5020029;28;20045;-68
2022/07/11 10:05:36;;;;;;;2.33;0.40;;;18.20;99.90;;;;;;5033726;28;20037;-68
2022/07/11 10:08:03;;;;;;;0.30;0.30;;;18.10;99.90;;;;;;5019613;28;20067;-68
2022/07/11 10:10:30;;;;;;;1.20;0.50;;;18.10;99.90;;;;;;5019571;28;20037;-68
2022/07/11 10:12:56;;;;;;;0.40;0.40;;;18.20;99.90;;;;;;5019125;28;20041;-68
2022/07/11 10:15:29;;;;;;;0.80;0.40;;;18.30;99.90;;;;;;5018246;28;20532;-68
2022/07/11 10:18:18;;;;;;;0.25;0.20;;;18.30;99.90;;;;;;5020245;28;20547;-68
2022/07/11 10:20:56;;;;;;;1.92;0.45;;;18.30;99.90;;;;;;5033728;28;20386;-68
2022/07/11 10:23:46;;;;;;;0.30;0.30;;;18.30;99.90;;;;;;5011927;28;20056;-68
2022/07/11 10:26:35;;;;;;;0.73;0.38;;;18.20;99.90;;;;;;5035013;28;20059;-68
2022/07/11 10:29:17;;;;;;;1.02;0.40;;;18.30;99.90;;;;;;5023613;28;20128;-68
2022/07/11 10:31:46;;;;;;;;;;;18.20;99.90;;;;;;5031036;28;20054;-68
2022/07/11 10:34:18;;;;;;;1.00;0.40;;;18.20;99.90;;;;;;5032215;28;19925;-68
2022/07/11 10:36:44;;;;;;;0.95;0.40;;;18.20;99.90;;;;;;5032327;28;20495;-68
2022/07/11 10:39:17;;;;;;;0.40;0.40;;;18.20;99.90;;;;;;5016124;28;20509;-68
2022/07/11 10:41:44;;;;;;;0.75;0.30;;;18.20;99.90;;;;;;5029943;28;20057;-69
2022/07/11 10:44:10;;;;;;;2.33;0.47;;;18.20;99.90;;;;;;5030760;28;20046;-69
2022/07/11 10:46:35;;;;;;;0.43;0.30;;;18.20;99.90;;;;;;5015277;28;20494;-68
2022/07/11 10:49:06;;;;;;;1.45;0.50;;;18.30;99.90;;;;;;5030088;28;20049;-68
2022/07/11 10:52:04;;;;;;;0.68;0.50;;;18.30;99.90;;;;;;5029677;28;20116;-68
2022/07/11 10:54:42;;;;;;;0.60;0.45;;;18.30;99.90;;;;;;5012165;28;20140;-68
2022/07/11 10:57:21;;;;;;;1.65;0.60;;;18.40;99.90;;;;;;5026937;28;20041;-68
2022/07/11 11:00:09;;;;;;;0.77;0.40;;;18.40;99.90;;;;;;5012738;28;20048;-68
2022/07/11 11:03:09;;;;;;;0.77;0.70;;;18.40;99.90;;;;;;5031477;28;20041;-68
2022/07/11 11:05:48;;;;;;;1.55;0.50;;;18.50;99.90;;;;;;4963111;28;20042;-68
2022/07/11 11:08:32;;;;;;;1.67;0.50;;;18.50;99.90;;;;;;5011979;28;20048;-68
2022/07/11 11:11:20;;;;;;;1.23;0.40;;;18.50;99.90;;;;;;5023943;28;20056;-68
2022/07/11 11:13:46;;;;;;;2.33;0.40;;;18.50;99.90;;;;;;5005571;28;20065;-68
2022/07/11 11:16:19;;;;;;;0.85;0.40;;;18.50;99.90;;;;;;5027268;28;20136;-68
2022/07/11 11:18:45;;;;;;;1.23;0.40;;;18.50;99.90;;;;;;5029380;28;20402;-68
2022/07/11 11:21:18;;;;;;;0.98;0.40;;;18.50;99.90;;;;;;5031137;28;20045;-68
2022/07/11 11:23:59;;;;;;;0.73;0.50;;;18.40;99.90;;;;;;5015605;28;20562;-68
2022/07/11 11:27:01;;;;;;;0.60;0.60;;;18.50;99.90;;;;;;5027635;28;20048;-68
2022/07/11 11:29:29;;;;;;;0.60;0.50;;;18.50;99.90;;;;;;5012755;28;20083;-68
2022/07/11 11:31:58;;;;;;;0.77;0.40;;;18.50;99.90;;;;;;5030609;28;20064;-68
2022/07/11 11:34:24;;;;;;;2.50;0.63;;;18.60;99.90;;;;;;5014711;28;20481;-68
2022/07/11 11:36:59;;;;;;;0.30;0.30;;;18.70;99.90;;;;;;5034145;28;20040;-68
2022/07/11 11:39:26;;;;;;;1.35;0.52;;;18.70;99.90;;;;;;5034986;28;20553;-68
2022/07/11 11:41:52;;;;;;;0.95;0.45;;;18.70;99.90;;;;;;5019212;28;20473;-68
2022/07/11 11:44:18;;;;;;;0.68;0.50;;;18.80;99.90;;;;;;5035281;28;20040;-68
2022/07/11 11:46:43;;;;;;;0.77;0.45;;;18.90;99.90;;;;;;5035145;28;20028;-68
2022/07/11 11:49:09;;;;;;;1.30;0.60;;;18.90;99.90;;;;;;5035291;28;20044;-68
2022/07/11 11:51:34;;;;;;;2.28;0.50;;;18.90;99.90;;;;;;5034093;28;20076;-68
2022/07/11 11:54:02;;;;;;;1.20;0.50;;;18.90;99.90;;;;;;5034953;28;20128;-68
2022/07/11 11:56:33;;;;;;;1.10;0.50;;;18.90;99.90;;;;;;5034830;28;20048;-68
2022/07/11 11:59:13;;;;;;;0.95;0.50;;;18.80;99.90;;;;;;5032804;28;20037;-68
2022/07/11 12:01:44;;;;;;;1.45;0.50;;;18.70;99.90;;;;;;5016399;28;20041;-68
2022/07/11 12:04:12;;;;;;;2.05;0.60;;;18.70;99.90;;;;;;5032100;28;20045;-68
2022/07/11 12:06:42;;;;;;;1.45;0.70;;;18.70;99.90;;;;;;5033931;28;20120;-69
2022/07/11 12:09:12;;;;;;;1.98;0.70;;;18.70;99.90;;;;;;5033653;28;20029;-68
2022/07/11 12:11:39;;;;;;;0.68;0.60;;;18.70;99.90;;;;;;5033930;28;20105;-67
2022/07/11 12:14:13;;;;;;;1.05;0.57;;;18.70;99.90;;;;;;5015789;28;20037;-69
2022/07/11 12:16:46;;;;;;;1.50;0.70;;;18.80;99.90;;;;;;5014717;28;20072;-68
2022/07/11 12:19:16;;;;;;;3.20;0.70;;;18.80;99.90;;;;;;5035033;28;20132;-68
2022/07/11 12:21:46;;;;;;;1.52;0.60;;;18.90;99.90;;;;;;5017612;28;20056;-69
2022/07/11 12:24:20;;;;;;;2.03;0.60;;;19.00;99.90;;;;;;5034627;28;20452;-69
2022/07/11 12:26:47;;;;;;;1.77;0.55;;;19.00;99.90;;;;;;5048610;28;20045;-68
2022/07/11 12:29:17;;;;;;;1.88;0.60;;;19.00;99.90;;;;;;5049542;28;20037;-68
2022/07/11 12:31:51;;;;;;;1.08;0.75;;;19.10;99.90;;;;;;5015113;28;20115;-68
2022/07/11 12:34:37;;;;;;;1.40;0.70;;;19.10;99.90;;;;;;5033741;28;20043;-68
2022/07/11 12:37:03;;;;;;;1.17;0.70;;;19.10;99.90;;;;;;5036549;28;20048;-73
2022/07/11 12:39:31;;;;;;;2.20;0.88;;;19.10;99.90;;;;;;5038160;28;20044;-73
2022/07/11 12:41:59;;;;;;;0.60;0.55;;;19.10;99.90;;;;;;5036761;28;20068;-72
2022/07/11 12:47:11;;;;;;;0.82;0.70;;;19.00;99.90;;;;;;5038166;28;20044;-68
2022/07/11 12:49:39;;;;;;;1.50;0.50;;;19.00;99.90;;;;;;5037979;28;20109;-69
2022/07/11 12:52:05;;;;;;;5.50;1.08;;;19.00;99.90;;;;;;5034250;28;20068;-69
2022/07/11 12:54:33;;;;;;;3.33;1.17;;;19.00;99.90;;;;;;5034173;28;20029;-72
2022/07/11 12:57:02;;;;;;;1.00;0.60;;;19.00;99.90;;;;;;5037701;28;20532;-71